Archival Weather

Chicago O'Hare International

Chicago, Illinois (KORD)

Report from: Friday, March 30, 2012 10:51 PM CDT
Current time: Friday, June 21, 2024 7:25 PM CDT

Current weather – Weather history – Daily summaries
Weather forecast

Temperature5.0°C (41.0°F)
Wind chill2.1°C (35.8°F)
Dew point1.7°C (35.1°F)
Winds 7 kts (3.6 m/s, 8.1 mph) Northeast (40°)
Visibility10 mi. (16.1 km)
Clouds Ceiling: Overcast 1,200 ft. (366 m)
Altimeter29.91 in.Hg (1013 mB)
Relative humidity79 %
Density altitude-1,097 ft. (-334 m)
Sea-level pressure101.3 kPa (1013 mB, 29.91 in.Hg)
Remarks System requires maintenance
Automated weather observing station with precipitation discriminator
Flight conditions Marginal Visual Meteorological Conditions
Raw data2012-03-31 03:51 KORD 310351Z 04007KT 10SM OVC012 05/02 A2991 RMK AO2 SLP130 T00500017 $
An error has occurred. This application may no longer respond until reloaded. Reload 🗙